• Join FlightAware (Why Join?)
  • Login
  • US Flag 
08:09AM EDT


 

Airport Tracker/Info


-or-


 

Live Flight TrackerFlight Track Log ✈ SWA983 ✈ 19-Apr-2013 ✈ KBWI - KISP

Flight Track Log - Related Links

Times and Time Zones

All times are in EDT time to prevent confusion due to time zone crossing. See the SWA983 flight status page for this flight to view local times or setup timezone preferences in your user account.

Time Position Orientation Groundspeed Altitude Reporting Facility
EDT Latitude Longitude Course Direction KTS MPH feet Rate Location/Type
03:39PM 39.1167 -76.6167 90° East 192 221 3,400  Level Potomac TRACON
03:42PM 39.0561 -76.4656 117° Southeast 230 265 9,300 2,580 Climbing Washington Center
03:43PM 39.0275 -76.3664 110° East 263 303 11,600 2,880 Climbing Washington Center
03:44PM 39.0325 -76.2356 87° East 320 368 15,100 3,360 Climbing Washington Center
03:45PM 39.0333 -75.9706 90° East  Level FlightAware Approximate
03:45PM 39.0436 -76.0861 84° East 350 403 18,400  Level Washington Center
03:46PM 39.0483 -75.9364 88° East 385 443 21,200 2,280 Climbing Washington Center
03:47PM 39.0569 -75.7867 86° East 406 467 23,000 900 Climbing Washington Center
03:48PM 39.0633 -75.6236 87° East 430 495 23,000  Level Washington Center
03:49PM 39.0717 -75.4606 86° East 443 510 23,000  Level Washington Center
03:50PM 39.0775 -75.3028 87° East 448 516 23,000  Level Washington Center
03:51PM 39.0833 -75.1450 87° East 441 507 23,000  Level Washington Center
03:52PM 39.0908 -74.9844 87° East 441 507 23,000  Level Washington Center
03:53PM 39.0964 -74.8267 87° East 441 507 23,000  Level Washington Center
03:54PM 39.1683 -74.6894 56° Northeast 441 507 23,000  Level Washington Center
03:55PM 39.2783 -74.5231 49° Northeast 426 490 23,000 -120 Level New York Center
03:56PM 39.3594 -74.3958 50° Northeast 446 513 22,800 -660 Descending New York Center
03:57PM 39.4403 -74.2736 49° Northeast 451 519 21,700 -960 Descending New York Center
03:58PM 39.5169 -74.1481 52° Northeast 456 525 21,000 -720 Descending New York Center
03:59PM 39.5956 -74.0281 50° Northeast 451 519 20,300 -900 Descending New York Center
04:00PM 39.6717 -73.9075 51° Northeast 446 513 19,300 -960 Descending New York Center
04:01PM 39.7356 -73.7808 57° Northeast 433 498 18,400 -1,020 Descending New York Center
04:02PM 39.7828 -73.6422 66° East 414 476 17,300 -1,080 Descending New York Center
04:03PM 39.8339 -73.5119 63° Northeast 404 465 16,300 -1,080 Descending New York Center
04:04PM 39.8914 -73.3708 62° Northeast 398 458 15,200 -1,200 Descending New York Center
04:06PM 40.0264 -73.2122 42° Northeast 364 419 12,900 -1,560 Descending Boston Center
04:07PM 40.1183 -73.1428 30° Northeast 370 426 10,800 -2,040 Descending Boston Center
04:08PM 40.2125 -73.0706 30° Northeast 380 437 8,900 -960 Descending Boston Center
04:09PM 40.2964 -73.0006 32° Northeast 372 428 8,900 -720 Level Boston Center
04:11PM 40.4833 -72.8500 31° Northeast 331 381 6,800 -1,140 Descending New York TRACON
04:12PM 40.5667 -72.8333 North 314 361 5,300 -1,500 Descending New York TRACON
04:13PM 40.6500 -72.8500 351° North 305 351 3,900 -1,200 Descending New York TRACON
04:14PM 40.7333 -72.8500 360° North 290 334 2,900 -960 Descending New York TRACON
04:15PM 40.8167 -72.8667 351° North 269 310 2,000 -480 Descending New York TRACON
04:16PM 40.8833 -72.9000 339° North 251 289 2,000  Level New York TRACON
04:17PM 40.9000 -72.9500 294° West 176 203 2,000  Level New York TRACON
04:18PM 40.8833 -72.9833 237° Southwest 126 145 2,000 -180 Level New York TRACON
04:19PM 40.8667 -73.0167 237° Southwest 112 129 1,700 -420 Descending New York TRACON
04:20PM 40.8333 -73.0500 217° Southwest 98 113 1,200 -540 Descending New York TRACON